sensor_id;sensor_type;location;lat;lon;timestamp;P1;durP1;ratioP1;P2;durP2;ratioP2
53263;SDS011;39153;52.680;6.172;2023-07-13T00:02:16;17.13;;;3.33;;
53263;SDS011;39153;52.680;6.172;2023-07-13T00:04:42;12.23;;;2.70;;
53263;SDS011;39153;52.680;6.172;2023-07-13T00:07:08;9.40;;;2.40;;
53263;SDS011;39153;52.680;6.172;2023-07-13T00:09:34;14.82;;;2.70;;
53263;SDS011;39153;52.680;6.172;2023-07-13T00:12:00;14.35;;;3.00;;
53263;SDS011;39153;52.680;6.172;2023-07-13T00:14:28;9.43;;;2.92;;
53263;SDS011;39153;52.680;6.172;2023-07-13T00:16:54;9.90;;;2.58;;
53263;SDS011;39153;52.680;6.172;2023-07-13T00:19:20;8.25;;;2.53;;
53263;SDS011;39153;52.680;6.172;2023-07-13T00:21:46;10.68;;;2.67;;
53263;SDS011;39153;52.680;6.172;2023-07-13T00:24:15;8.60;;;2.20;;
53263;SDS011;39153;52.680;6.172;2023-07-13T00:26:43;11.20;;;2.80;;
53263;SDS011;39153;52.680;6.172;2023-07-13T00:29:12;9.25;;;2.65;;
53263;SDS011;39153;52.680;6.172;2023-07-13T00:31:38;10.38;;;2.50;;
53263;SDS011;39153;52.680;6.172;2023-07-13T00:34:03;14.07;;;3.05;;
53263;SDS011;39153;52.680;6.172;2023-07-13T00:36:30;9.73;;;3.00;;
53263;SDS011;39153;52.680;6.172;2023-07-13T00:38:56;12.48;;;2.78;;
53263;SDS011;39153;52.680;6.172;2023-07-13T00:41:22;8.18;;;2.38;;
53263;SDS011;39153;52.680;6.172;2023-07-13T00:43:48;10.85;;;2.53;;
53263;SDS011;39153;52.680;6.172;2023-07-13T00:46:19;13.45;;;3.00;;
53263;SDS011;39153;52.680;6.172;2023-07-13T00:48:47;12.32;;;2.53;;
53263;SDS011;39153;52.680;6.172;2023-07-13T00:51:15;10.48;;;2.60;;
53263;SDS011;39153;52.680;6.172;2023-07-13T00:53:44;7.70;;;2.20;;
53263;SDS011;39153;52.680;6.172;2023-07-13T00:56:10;10.80;;;2.70;;
53263;SDS011;39153;52.680;6.172;2023-07-13T00:58:36;10.02;;;2.85;;
53263;SDS011;39153;52.680;6.172;2023-07-13T01:01:02;12.35;;;2.63;;
53263;SDS011;39153;52.680;6.172;2023-07-13T01:03:27;11.60;;;2.65;;
53263;SDS011;39153;52.680;6.172;2023-07-13T01:05:54;8.18;;;2.60;;
53263;SDS011;39153;52.680;6.172;2023-07-13T01:08:20;12.05;;;3.10;;
53263;SDS011;39153;52.680;6.172;2023-07-13T01:10:56;7.78;;;2.30;;
53263;SDS011;39153;52.680;6.172;2023-07-13T01:13:23;9.48;;;3.05;;
53263;SDS011;39153;52.680;6.172;2023-07-13T01:15:49;9.93;;;2.60;;
53263;SDS011;39153;52.680;6.172;2023-07-13T01:18:19;11.10;;;3.03;;
53263;SDS011;39153;52.680;6.172;2023-07-13T01:20:56;13.13;;;2.90;;
53263;SDS011;39153;52.680;6.172;2023-07-13T01:23:24;11.30;;;2.90;;
53263;SDS011;39153;52.680;6.172;2023-07-13T01:25:52;13.68;;;2.95;;
53263;SDS011;39153;52.680;6.172;2023-07-13T01:28:18;10.18;;;2.63;;
53263;SDS011;39153;52.680;6.172;2023-07-13T01:30:44;13.52;;;3.08;;
53263;SDS011;39153;52.680;6.172;2023-07-13T01:33:12;11.00;;;2.67;;
53263;SDS011;39153;52.680;6.172;2023-07-13T01:35:38;12.32;;;2.65;;
53263;SDS011;39153;52.680;6.172;2023-07-13T01:38:04;12.20;;;2.63;;
53263;SDS011;39153;52.680;6.172;2023-07-13T01:40:30;8.13;;;2.60;;
53263;SDS011;39153;52.680;6.172;2023-07-13T01:42:58;10.30;;;3.20;;
53263;SDS011;39153;52.680;6.172;2023-07-13T01:45:24;7.57;;;2.70;;
53263;SDS011;39153;52.680;6.172;2023-07-13T01:47:49;12.13;;;3.35;;
53263;SDS011;39153;52.680;6.172;2023-07-13T01:50:15;9.27;;;2.90;;
53263;SDS011;39153;52.680;6.172;2023-07-13T01:52:41;12.68;;;3.00;;
53263;SDS011;39153;52.680;6.172;2023-07-13T01:55:07;9.13;;;2.60;;
53263;SDS011;39153;52.680;6.172;2023-07-13T01:57:33;12.80;;;2.85;;
53263;SDS011;39153;52.680;6.172;2023-07-13T01:59:59;11.57;;;3.10;;
53263;SDS011;39153;52.680;6.172;2023-07-13T02:02:26;13.05;;;3.03;;
53263;SDS011;39153;52.680;6.172;2023-07-13T02:04:52;11.85;;;3.13;;
53263;SDS011;39153;52.680;6.172;2023-07-13T02:07:17;9.07;;;2.80;;
53263;SDS011;39153;52.680;6.172;2023-07-13T02:09:43;13.32;;;3.10;;
53263;SDS011;39153;52.680;6.172;2023-07-13T02:12:09;11.55;;;2.78;;
53263;SDS011;39153;52.680;6.172;2023-07-13T02:14:34;10.65;;;3.22;;
53263;SDS011;39153;52.680;6.172;2023-07-13T02:17:00;11.15;;;2.88;;
53263;SDS011;39153;52.680;6.172;2023-07-13T02:19:26;11.15;;;2.67;;
53263;SDS011;39153;52.680;6.172;2023-07-13T02:21:51;15.05;;;3.20;;
53263;SDS011;39153;52.680;6.172;2023-07-13T02:24:17;9.63;;;2.90;;
53263;SDS011;39153;52.680;6.172;2023-07-13T02:26:44;8.07;;;2.70;;
53263;SDS011;39153;52.680;6.172;2023-07-13T02:29:10;11.38;;;3.17;;
53263;SDS011;39153;52.680;6.172;2023-07-13T02:31:36;10.98;;;2.88;;
53263;SDS011;39153;52.680;6.172;2023-07-13T02:34:03;11.90;;;2.67;;
53263;SDS011;39153;52.680;6.172;2023-07-13T02:36:29;10.82;;;2.95;;
53263;SDS011;39153;52.680;6.172;2023-07-13T02:38:57;13.88;;;3.58;;
53263;SDS011;39153;52.680;6.172;2023-07-13T02:41:26;13.38;;;3.22;;
53263;SDS011;39153;52.680;6.172;2023-07-13T02:43:52;10.85;;;2.78;;
53263;SDS011;39153;52.680;6.172;2023-07-13T02:46:18;11.77;;;3.20;;
53263;SDS011;39153;52.680;6.172;2023-07-13T02:48:44;10.48;;;2.95;;
53263;SDS011;39153;52.680;6.172;2023-07-13T02:51:11;11.40;;;2.95;;
53263;SDS011;39153;52.680;6.172;2023-07-13T02:53:36;14.48;;;3.17;;
53263;SDS011;39153;52.680;6.172;2023-07-13T02:56:02;12.13;;;3.95;;
53263;SDS011;39153;52.680;6.172;2023-07-13T02:58:29;15.20;;;3.70;;
53263;SDS011;39153;52.680;6.172;2023-07-13T03:00:55;10.48;;;2.95;;
53263;SDS011;39153;52.680;6.172;2023-07-13T03:03:23;13.60;;;3.50;;
53263;SDS011;39153;52.680;6.172;2023-07-13T03:05:57;14.75;;;3.13;;
53263;SDS011;39153;52.680;6.172;2023-07-13T03:08:25;12.63;;;2.92;;
53263;SDS011;39153;52.680;6.172;2023-07-13T03:11:00;11.43;;;3.15;;
53263;SDS011;39153;52.680;6.172;2023-07-13T03:13:26;10.77;;;3.22;;
53263;SDS011;39153;52.680;6.172;2023-07-13T03:15:51;11.82;;;3.25;;
53263;SDS011;39153;52.680;6.172;2023-07-13T03:18:17;13.70;;;3.53;;
53263;SDS011;39153;52.680;6.172;2023-07-13T03:20:43;11.63;;;3.22;;
53263;SDS011;39153;52.680;6.172;2023-07-13T03:23:09;13.10;;;3.38;;
53263;SDS011;39153;52.680;6.172;2023-07-13T03:25:34;12.10;;;3.33;;
53263;SDS011;39153;52.680;6.172;2023-07-13T03:28:00;13.85;;;3.50;;
53263;SDS011;39153;52.680;6.172;2023-07-13T03:30:26;10.05;;;3.10;;
53263;SDS011;39153;52.680;6.172;2023-07-13T03:32:51;12.65;;;3.67;;
53263;SDS011;39153;52.680;6.172;2023-07-13T03:35:17;15.07;;;4.15;;
53263;SDS011;39153;52.680;6.172;2023-07-13T03:37:43;13.32;;;3.40;;
53263;SDS011;39153;52.680;6.172;2023-07-13T03:40:09;11.40;;;3.55;;
53263;SDS011;39153;52.680;6.172;2023-07-13T03:42:35;12.55;;;3.50;;
53263;SDS011;39153;52.680;6.172;2023-07-13T03:45:01;15.02;;;3.50;;
53263;SDS011;39153;52.680;6.172;2023-07-13T03:47:27;11.25;;;3.60;;
53263;SDS011;39153;52.680;6.172;2023-07-13T03:49:52;9.82;;;3.28;;
53263;SDS011;39153;52.680;6.172;2023-07-13T03:52:18;11.07;;;3.85;;
53263;SDS011;39153;52.680;6.172;2023-07-13T03:54:44;12.27;;;3.65;;
53263;SDS011;39153;52.680;6.172;2023-07-13T03:57:10;13.50;;;3.95;;
53263;SDS011;39153;52.680;6.172;2023-07-13T03:59:35;14.38;;;3.80;;
53263;SDS011;39153;52.680;6.172;2023-07-13T04:02:01;9.73;;;3.15;;
53263;SDS011;39153;52.680;6.172;2023-07-13T04:04:29;14.02;;;4.57;;
53263;SDS011;39153;52.680;6.172;2023-07-13T04:06:55;11.32;;;3.75;;
53263;SDS011;39153;52.680;6.172;2023-07-13T04:09:24;10.93;;;3.75;;
53263;SDS011;39153;52.680;6.172;2023-07-13T04:11:50;12.88;;;3.80;;
53263;SDS011;39153;52.680;6.172;2023-07-13T04:14:16;13.55;;;3.95;;
53263;SDS011;39153;52.680;6.172;2023-07-13T04:16:42;13.70;;;4.18;;
53263;SDS011;39153;52.680;6.172;2023-07-13T04:19:08;10.80;;;3.58;;
53263;SDS011;39153;52.680;6.172;2023-07-13T04:21:35;11.30;;;3.40;;
53263;SDS011;39153;52.680;6.172;2023-07-13T04:24:01;13.02;;;4.05;;
53263;SDS011;39153;52.680;6.172;2023-07-13T04:26:28;9.15;;;2.65;;
53263;SDS011;39153;52.680;6.172;2023-07-13T04:28:54;13.70;;;3.95;;
53263;SDS011;39153;52.680;6.172;2023-07-13T04:31:20;12.13;;;4.05;;
53263;SDS011;39153;52.680;6.172;2023-07-13T04:33:46;13.23;;;3.80;;
53263;SDS011;39153;52.680;6.172;2023-07-13T04:36:12;13.48;;;3.85;;
53263;SDS011;39153;52.680;6.172;2023-07-13T04:38:38;11.23;;;3.90;;
53263;SDS011;39153;52.680;6.172;2023-07-13T04:41:04;11.93;;;3.90;;
53263;SDS011;39153;52.680;6.172;2023-07-13T04:43:32;12.13;;;3.83;;
53263;SDS011;39153;52.680;6.172;2023-07-13T04:46:02;13.98;;;3.78;;
53263;SDS011;39153;52.680;6.172;2023-07-13T04:48:30;11.90;;;3.65;;
53263;SDS011;39153;52.680;6.172;2023-07-13T04:50:57;10.73;;;3.70;;
53263;SDS011;39153;52.680;6.172;2023-07-13T04:53:23;12.18;;;3.95;;
53263;SDS011;39153;52.680;6.172;2023-07-13T04:55:50;12.80;;;3.75;;
53263;SDS011;39153;52.680;6.172;2023-07-13T04:58:15;12.10;;;4.00;;
53263;SDS011;39153;52.680;6.172;2023-07-13T05:00:41;13.98;;;4.50;;
53263;SDS011;39153;52.680;6.172;2023-07-13T05:03:07;11.82;;;3.70;;
53263;SDS011;39153;52.680;6.172;2023-07-13T05:05:32;12.20;;;3.75;;
53263;SDS011;39153;52.680;6.172;2023-07-13T05:07:59;12.48;;;4.32;;
53263;SDS011;39153;52.680;6.172;2023-07-13T05:10:24;12.25;;;4.28;;
53263;SDS011;39153;52.680;6.172;2023-07-13T05:12:50;13.57;;;4.43;;
53263;SDS011;39153;52.680;6.172;2023-07-13T05:15:16;11.85;;;4.10;;
53263;SDS011;39153;52.680;6.172;2023-07-13T05:17:46;13.95;;;4.78;;
53263;SDS011;39153;52.680;6.172;2023-07-13T05:20:15;11.63;;;3.83;;
53263;SDS011;39153;52.680;6.172;2023-07-13T05:22:42;12.13;;;3.00;;
53263;SDS011;39153;52.680;6.172;2023-07-13T05:25:08;10.60;;;4.07;;
53263;SDS011;39153;52.680;6.172;2023-07-13T05:27:34;11.32;;;4.18;;
53263;SDS011;39153;52.680;6.172;2023-07-13T05:30:01;15.73;;;4.47;;
53263;SDS011;39153;52.680;6.172;2023-07-13T05:32:28;12.75;;;4.40;;
53263;SDS011;39153;52.680;6.172;2023-07-13T05:34:54;10.13;;;4.13;;
53263;SDS011;39153;52.680;6.172;2023-07-13T05:37:20;11.52;;;4.40;;
53263;SDS011;39153;52.680;6.172;2023-07-13T05:39:45;12.57;;;4.78;;
53263;SDS011;39153;52.680;6.172;2023-07-13T05:42:11;12.77;;;4.65;;
53263;SDS011;39153;52.680;6.172;2023-07-13T05:44:37;14.75;;;4.40;;
53263;SDS011;39153;52.680;6.172;2023-07-13T05:47:03;13.65;;;4.18;;
53263;SDS011;39153;52.680;6.172;2023-07-13T05:49:29;11.02;;;3.92;;
53263;SDS011;39153;52.680;6.172;2023-07-13T05:51:55;11.80;;;4.13;;
53263;SDS011;39153;52.680;6.172;2023-07-13T05:54:21;12.77;;;4.25;;
53263;SDS011;39153;52.680;6.172;2023-07-13T05:56:47;14.18;;;4.40;;
53263;SDS011;39153;52.680;6.172;2023-07-13T05:59:13;10.95;;;4.03;;
53263;SDS011;39153;52.680;6.172;2023-07-13T06:01:38;10.65;;;4.28;;
53263;SDS011;39153;52.680;6.172;2023-07-13T06:04:04;16.45;;;3.90;;
53263;SDS011;39153;52.680;6.172;2023-07-13T06:06:30;12.07;;;3.80;;
53263;SDS011;39153;52.680;6.172;2023-07-13T06:08:56;13.45;;;4.18;;
53263;SDS011;39153;52.680;6.172;2023-07-13T06:11:23;13.40;;;4.03;;
53263;SDS011;39153;52.680;6.172;2023-07-13T06:13:50;10.52;;;3.67;;
53263;SDS011;39153;52.680;6.172;2023-07-13T06:16:16;13.18;;;4.20;;
53263;SDS011;39153;52.680;6.172;2023-07-13T06:18:42;11.60;;;4.15;;
53263;SDS011;39153;52.680;6.172;2023-07-13T06:21:18;12.13;;;4.13;;
53263;SDS011;39153;52.680;6.172;2023-07-13T06:23:46;12.15;;;4.25;;
53263;SDS011;39153;52.680;6.172;2023-07-13T06:26:15;15.48;;;4.25;;
53263;SDS011;39153;52.680;6.172;2023-07-13T06:28:42;11.90;;;3.85;;
53263;SDS011;39153;52.680;6.172;2023-07-13T06:31:09;12.82;;;3.97;;
53263;SDS011;39153;52.680;6.172;2023-07-13T06:33:36;13.10;;;4.10;;
53263;SDS011;39153;52.680;6.172;2023-07-13T06:36:03;10.13;;;4.35;;
53263;SDS011;39153;52.680;6.172;2023-07-13T06:38:30;14.77;;;4.30;;
53263;SDS011;39153;52.680;6.172;2023-07-13T06:40:56;13.30;;;4.25;;
53263;SDS011;39153;52.680;6.172;2023-07-13T06:43:22;9.52;;;3.80;;
53263;SDS011;39153;52.680;6.172;2023-07-13T06:45:49;11.38;;;3.63;;
53263;SDS011;39153;52.680;6.172;2023-07-13T06:48:16;12.27;;;4.07;;
53263;SDS011;39153;52.680;6.172;2023-07-13T06:50:43;13.52;;;4.63;;
53263;SDS011;39153;52.680;6.172;2023-07-13T06:53:09;14.23;;;4.82;;
53263;SDS011;39153;52.680;6.172;2023-07-13T06:55:36;14.65;;;4.00;;
53263;SDS011;39153;52.680;6.172;2023-07-13T06:58:02;12.50;;;4.22;;
53263;SDS011;39153;52.680;6.172;2023-07-13T07:00:28;12.00;;;4.50;;
53263;SDS011;39153;52.680;6.172;2023-07-13T07:02:54;11.27;;;4.50;;
53263;SDS011;39153;52.680;6.172;2023-07-13T07:05:19;15.68;;;4.90;;
53263;SDS011;39153;52.680;6.172;2023-07-13T07:07:47;15.73;;;4.85;;
53263;SDS011;39153;52.680;6.172;2023-07-13T07:10:14;14.35;;;4.47;;
53263;SDS011;39153;52.680;6.172;2023-07-13T07:12:40;14.75;;;4.32;;
53263;SDS011;39153;52.680;6.172;2023-07-13T07:15:06;13.00;;;5.00;;
53263;SDS011;39153;52.680;6.172;2023-07-13T07:17:32;16.38;;;5.15;;
53263;SDS011;39153;52.680;6.172;2023-07-13T07:19:57;17.90;;;5.80;;
53263;SDS011;39153;52.680;6.172;2023-07-13T07:22:23;16.13;;;6.00;;
53263;SDS011;39153;52.680;6.172;2023-07-13T07:24:52;18.90;;;5.47;;
53263;SDS011;39153;52.680;6.172;2023-07-13T07:27:18;14.45;;;5.38;;
53263;SDS011;39153;52.680;6.172;2023-07-13T07:29:43;14.50;;;6.20;;
53263;SDS011;39153;52.680;6.172;2023-07-13T07:32:09;14.32;;;5.32;;
53263;SDS011;39153;52.680;6.172;2023-07-13T07:34:35;17.67;;;5.22;;
53263;SDS011;39153;52.680;6.172;2023-07-13T07:37:01;20.48;;;5.70;;
53263;SDS011;39153;52.680;6.172;2023-07-13T07:39:28;19.02;;;5.88;;
53263;SDS011;39153;52.680;6.172;2023-07-13T07:41:54;19.02;;;5.15;;
53263;SDS011;39153;52.680;6.172;2023-07-13T07:44:19;15.82;;;5.60;;
53263;SDS011;39153;52.680;6.172;2023-07-13T07:46:45;14.30;;;4.90;;
53263;SDS011;39153;52.680;6.172;2023-07-13T07:49:11;14.80;;;4.93;;
53263;SDS011;39153;52.680;6.172;2023-07-13T07:51:37;19.42;;;5.18;;
53263;SDS011;39153;52.680;6.172;2023-07-13T07:54:03;12.38;;;4.40;;
53263;SDS011;39153;52.680;6.172;2023-07-13T07:56:30;15.27;;;4.45;;
53263;SDS011;39153;52.680;6.172;2023-07-13T07:58:56;14.45;;;5.15;;
53263;SDS011;39153;52.680;6.172;2023-07-13T08:01:21;16.85;;;4.93;;
53263;SDS011;39153;52.680;6.172;2023-07-13T08:03:48;14.00;;;5.13;;
53263;SDS011;39153;52.680;6.172;2023-07-13T08:06:13;17.73;;;5.47;;
53263;SDS011;39153;52.680;6.172;2023-07-13T08:08:39;12.55;;;5.15;;
53263;SDS011;39153;52.680;6.172;2023-07-13T08:11:06;12.00;;;4.20;;
53263;SDS011;39153;52.680;6.172;2023-07-13T08:13:33;10.32;;;3.88;;
53263;SDS011;39153;52.680;6.172;2023-07-13T08:15:59;13.32;;;4.53;;
53263;SDS011;39153;52.680;6.172;2023-07-13T08:18:25;11.98;;;4.20;;
53263;SDS011;39153;52.680;6.172;2023-07-13T08:20:51;14.60;;;5.07;;
53263;SDS011;39153;52.680;6.172;2023-07-13T08:23:17;15.27;;;4.80;;
53263;SDS011;39153;52.680;6.172;2023-07-13T08:25:49;13.82;;;4.93;;
53263;SDS011;39153;52.680;6.172;2023-07-13T08:28:16;15.52;;;5.20;;
53263;SDS011;39153;52.680;6.172;2023-07-13T08:30:42;13.77;;;5.25;;
53263;SDS011;39153;52.680;6.172;2023-07-13T08:33:08;12.30;;;5.28;;
53263;SDS011;39153;52.680;6.172;2023-07-13T08:35:33;5.38;;;1.67;;
53263;SDS011;39153;52.680;6.172;2023-07-13T08:37:59;7.00;;;2.20;;
53263;SDS011;39153;52.680;6.172;2023-07-13T08:40:25;11.68;;;4.00;;
53263;SDS011;39153;52.680;6.172;2023-07-13T08:43:01;8.85;;;2.92;;
53263;SDS011;39153;52.680;6.172;2023-07-13T08:48:11;11.10;;;2.60;;
53263;SDS011;39153;52.680;6.172;2023-07-13T08:50:47;7.47;;;3.58;;
53263;SDS011;39153;52.680;6.172;2023-07-13T08:53:19;5.30;;;2.80;;
53263;SDS011;39153;52.680;6.172;2023-07-13T08:55:48;7.57;;;3.17;;
53263;SDS011;39153;52.680;6.172;2023-07-13T08:58:22;8.25;;;2.80;;
53263;SDS011;39153;52.680;6.172;2023-07-13T09:03:23;5.40;;;3.17;;
53263;SDS011;39153;52.680;6.172;2023-07-13T09:05:54;8.13;;;2.78;;
53263;SDS011;39153;52.680;6.172;2023-07-13T09:11:04;11.98;;;3.65;;
53263;SDS011;39153;52.680;6.172;2023-07-13T09:13:46;7.88;;;3.40;;
53263;SDS011;39153;52.680;6.172;2023-07-13T09:16:26;9.35;;;4.18;;
53263;SDS011;39153;52.680;6.172;2023-07-13T09:18:53;5.40;;;2.50;;
53263;SDS011;39153;52.680;6.172;2023-07-13T09:21:29;5.93;;;3.40;;
53263;SDS011;39153;52.680;6.172;2023-07-13T09:27:17;8.55;;;4.10;;
53263;SDS011;39153;52.680;6.172;2023-07-13T09:29:54;7.10;;;4.13;;
53263;SDS011;39153;52.680;6.172;2023-07-13T09:32:26;9.45;;;5.20;;
53263;SDS011;39153;52.680;6.172;2023-07-13T09:34:54;9.80;;;5.28;;
53263;SDS011;39153;52.680;6.172;2023-07-13T09:37:21;11.48;;;6.45;;
53263;SDS011;39153;52.680;6.172;2023-07-13T09:39:53;9.23;;;6.25;;
53263;SDS011;39153;52.680;6.172;2023-07-13T09:42:21;11.60;;;5.85;;
53263;SDS011;39153;52.680;6.172;2023-07-13T09:44:52;10.68;;;6.00;;
53263;SDS011;39153;52.680;6.172;2023-07-13T09:49:54;12.00;;;6.93;;
53263;SDS011;39153;52.680;6.172;2023-07-13T09:52:42;13.40;;;8.07;;
53263;SDS011;39153;52.680;6.172;2023-07-13T09:55:26;17.33;;;7.80;;
53263;SDS011;39153;52.680;6.172;2023-07-13T09:58:04;13.00;;;11.60;;
53263;SDS011;39153;52.680;6.172;2023-07-13T10:00:35;15.75;;;12.55;;
53263;SDS011;39153;52.680;6.172;2023-07-13T10:03:05;17.77;;;12.68;;
53263;SDS011;39153;52.680;6.172;2023-07-13T10:05:48;14.80;;;9.82;;
53263;SDS011;39153;52.680;6.172;2023-07-13T10:08:25;10.40;;;5.70;;
53263;SDS011;39153;52.680;6.172;2023-07-13T10:10:58;12.77;;;6.30;;
53263;SDS011;39153;52.680;6.172;2023-07-13T10:13:27;8.50;;;5.07;;
53263;SDS011;39153;52.680;6.172;2023-07-13T10:15:54;13.05;;;7.55;;
53263;SDS011;39153;52.680;6.172;2023-07-13T10:18:22;11.07;;;7.03;;
53263;SDS011;39153;52.680;6.172;2023-07-13T10:20:50;10.20;;;4.78;;
53263;SDS011;39153;52.680;6.172;2023-07-13T10:23:39;8.85;;;4.20;;
53263;SDS011;39153;52.680;6.172;2023-07-13T10:26:04;12.23;;;5.40;;
53263;SDS011;39153;52.680;6.172;2023-07-13T10:28:40;13.30;;;7.18;;
53263;SDS011;39153;52.680;6.172;2023-07-13T10:31:12;12.98;;;6.78;;
53263;SDS011;39153;52.680;6.172;2023-07-13T10:33:40;10.48;;;6.60;;
53263;SDS011;39153;52.680;6.172;2023-07-13T10:36:11;9.10;;;4.72;;
53263;SDS011;39153;52.680;6.172;2023-07-13T10:38:48;7.10;;;3.30;;
53263;SDS011;39153;52.680;6.172;2023-07-13T10:41:20;4.47;;;2.28;;
53263;SDS011;39153;52.680;6.172;2023-07-13T10:43:49;5.13;;;2.80;;
53263;SDS011;39153;52.680;6.172;2023-07-13T10:46:18;7.45;;;3.33;;
53263;SDS011;39153;52.680;6.172;2023-07-13T10:48:47;7.80;;;3.53;;
53263;SDS011;39153;52.680;6.172;2023-07-13T10:51:17;6.00;;;3.03;;
53263;SDS011;39153;52.680;6.172;2023-07-13T10:53:46;7.85;;;3.20;;
53263;SDS011;39153;52.680;6.172;2023-07-13T10:59:18;5.95;;;3.30;;
53263;SDS011;39153;52.680;6.172;2023-07-13T11:04:39;8.25;;;3.90;;
53263;SDS011;39153;52.680;6.172;2023-07-13T11:07:16;7.97;;;4.45;;
53263;SDS011;39153;52.680;6.172;2023-07-13T11:09:49;7.30;;;4.25;;
53263;SDS011;39153;52.680;6.172;2023-07-13T11:20:18;6.43;;;3.88;;
53263;SDS011;39153;52.680;6.172;2023-07-13T11:22:53;6.93;;;3.63;;
53263;SDS011;39153;52.680;6.172;2023-07-13T11:25:35;9.52;;;4.38;;
53263;SDS011;39153;52.680;6.172;2023-07-13T11:38:19;6.20;;;2.45;;
53263;SDS011;39153;52.680;6.172;2023-07-13T11:40:47;4.20;;;1.70;;
53263;SDS011;39153;52.680;6.172;2023-07-13T11:43:15;7.55;;;1.80;;
53263;SDS011;39153;52.680;6.172;2023-07-13T11:45:44;9.00;;;1.95;;
53263;SDS011;39153;52.680;6.172;2023-07-13T11:48:29;4.80;;;1.90;;
53263;SDS011;39153;52.680;6.172;2023-07-13T11:51:04;6.07;;;1.83;;
53263;SDS011;39153;52.680;6.172;2023-07-13T11:53:40;8.65;;;1.63;;
53263;SDS011;39153;52.680;6.172;2023-07-13T11:56:10;4.97;;;1.80;;
53263;SDS011;39153;52.680;6.172;2023-07-13T11:58:36;8.10;;;2.10;;
53263;SDS011;39153;52.680;6.172;2023-07-13T12:01:02;6.43;;;1.77;;
53263;SDS011;39153;52.680;6.172;2023-07-13T12:03:30;7.18;;;1.98;;
53263;SDS011;39153;52.680;6.172;2023-07-13T12:05:59;4.93;;;1.40;;
53263;SDS011;39153;52.680;6.172;2023-07-13T12:08:27;5.60;;;1.70;;
53263;SDS011;39153;52.680;6.172;2023-07-13T12:11:00;7.53;;;2.17;;
53263;SDS011;39153;52.680;6.172;2023-07-13T12:13:34;4.45;;;1.50;;
53263;SDS011;39153;52.680;6.172;2023-07-13T12:18:37;6.00;;;1.90;;
53263;SDS011;39153;52.680;6.172;2023-07-13T12:21:03;5.68;;;1.48;;
53263;SDS011;39153;52.680;6.172;2023-07-13T12:23:31;4.72;;;1.50;;
53263;SDS011;39153;52.680;6.172;2023-07-13T12:26:01;5.82;;;1.42;;
53263;SDS011;39153;52.680;6.172;2023-07-13T12:28:33;5.30;;;1.20;;
53263;SDS011;39153;52.680;6.172;2023-07-13T12:31:31;4.15;;;1.33;;
53263;SDS011;39153;52.680;6.172;2023-07-13T12:34:09;4.30;;;1.10;;
53263;SDS011;39153;52.680;6.172;2023-07-13T12:36:45;3.92;;;1.48;;
53263;SDS011;39153;52.680;6.172;2023-07-13T12:39:27;4.43;;;1.33;;
53263;SDS011;39153;52.680;6.172;2023-07-13T12:44:59;4.95;;;1.33;;
53263;SDS011;39153;52.680;6.172;2023-07-13T12:47:29;5.85;;;1.35;;
53263;SDS011;39153;52.680;6.172;2023-07-13T12:49:56;7.00;;;1.25;;
53263;SDS011;39153;52.680;6.172;2023-07-13T12:52:28;4.43;;;1.48;;
53263;SDS011;39153;52.680;6.172;2023-07-13T12:55:01;6.65;;;1.38;;
53263;SDS011;39153;52.680;6.172;2023-07-13T12:57:40;5.30;;;1.35;;
53263;SDS011;39153;52.680;6.172;2023-07-13T13:00:26;4.88;;;1.30;;
53263;SDS011;39153;52.680;6.172;2023-07-13T13:02:53;4.88;;;1.52;;
53263;SDS011;39153;52.680;6.172;2023-07-13T13:05:20;6.00;;;1.30;;
53263;SDS011;39153;52.680;6.172;2023-07-13T13:07:49;5.75;;;1.40;;
53263;SDS011;39153;52.680;6.172;2023-07-13T13:10:15;4.47;;;1.38;;
53263;SDS011;39153;52.680;6.172;2023-07-13T13:12:41;6.88;;;1.60;;
53263;SDS011;39153;52.680;6.172;2023-07-13T13:15:09;5.22;;;1.50;;
53263;SDS011;39153;52.680;6.172;2023-07-13T13:17:37;5.30;;;1.40;;
53263;SDS011;39153;52.680;6.172;2023-07-13T13:20:16;5.70;;;1.40;;
53263;SDS011;39153;52.680;6.172;2023-07-13T13:22:46;6.93;;;1.50;;
53263;SDS011;39153;52.680;6.172;2023-07-13T13:25:12;4.20;;;1.40;;
53263;SDS011;39153;52.680;6.172;2023-07-13T13:27:42;5.32;;;1.40;;
53263;SDS011;39153;52.680;6.172;2023-07-13T13:30:10;6.43;;;1.60;;
53263;SDS011;39153;52.680;6.172;2023-07-13T13:32:41;8.35;;;1.52;;
53263;SDS011;39153;52.680;6.172;2023-07-13T13:35:18;4.97;;;1.38;;
53263;SDS011;39153;52.680;6.172;2023-07-13T13:37:46;5.10;;;1.48;;
53263;SDS011;39153;52.680;6.172;2023-07-13T13:40:20;6.82;;;1.50;;
53263;SDS011;39153;52.680;6.172;2023-07-13T13:42:48;4.47;;;1.30;;
53263;SDS011;39153;52.680;6.172;2023-07-13T13:45:14;5.20;;;1.50;;
53263;SDS011;39153;52.680;6.172;2023-07-13T13:47:42;4.53;;;1.20;;
53263;SDS011;39153;52.680;6.172;2023-07-13T13:50:11;5.53;;;1.52;;
53263;SDS011;39153;52.680;6.172;2023-07-13T13:52:39;5.40;;;1.60;;
53263;SDS011;39153;52.680;6.172;2023-07-13T13:55:12;4.93;;;1.50;;
53263;SDS011;39153;52.680;6.172;2023-07-13T13:57:44;7.07;;;1.95;;
53263;SDS011;39153;52.680;6.172;2023-07-13T14:00:11;5.03;;;1.58;;
53263;SDS011;39153;52.680;6.172;2023-07-13T14:02:39;5.90;;;1.75;;
53263;SDS011;39153;52.680;6.172;2023-07-13T14:05:09;6.30;;;1.67;;
53263;SDS011;39153;52.680;6.172;2023-07-13T14:07:37;4.32;;;1.48;;
53263;SDS011;39153;52.680;6.172;2023-07-13T14:10:08;5.43;;;1.35;;
53263;SDS011;39153;52.680;6.172;2023-07-13T14:12:38;3.50;;;1.30;;
53263;SDS011;39153;52.680;6.172;2023-07-13T14:15:04;6.50;;;1.52;;
53263;SDS011;39153;52.680;6.172;2023-07-13T14:17:31;5.00;;;1.50;;
53263;SDS011;39153;52.680;6.172;2023-07-13T14:19:57;7.05;;;1.65;;
53263;SDS011;39153;52.680;6.172;2023-07-13T14:22:26;6.00;;;1.30;;
53263;SDS011;39153;52.680;6.172;2023-07-13T14:24:53;8.85;;;1.63;;
53263;SDS011;39153;52.680;6.172;2023-07-13T14:27:19;6.43;;;1.60;;
53263;SDS011;39153;52.680;6.172;2023-07-13T14:29:46;5.10;;;1.40;;
53263;SDS011;39153;52.680;6.172;2023-07-13T14:32:12;7.63;;;1.33;;
53263;SDS011;39153;52.680;6.172;2023-07-13T14:34:38;4.50;;;1.60;;
53263;SDS011;39153;52.680;6.172;2023-07-13T14:37:05;5.90;;;1.45;;
53263;SDS011;39153;52.680;6.172;2023-07-13T14:39:33;7.63;;;1.67;;
53263;SDS011;39153;52.680;6.172;2023-07-13T14:41:59;9.23;;;1.80;;
53263;SDS011;39153;52.680;6.172;2023-07-13T14:44:26;4.75;;;1.38;;
53263;SDS011;39153;52.680;6.172;2023-07-13T14:46:59;6.60;;;1.85;;
53263;SDS011;39153;52.680;6.172;2023-07-13T14:49:39;5.65;;;1.60;;
53263;SDS011;39153;52.680;6.172;2023-07-13T14:52:11;6.38;;;1.73;;
53263;SDS011;39153;52.680;6.172;2023-07-13T14:54:40;6.15;;;1.85;;
53263;SDS011;39153;52.680;6.172;2023-07-13T14:57:09;7.45;;;1.73;;
53263;SDS011;39153;52.680;6.172;2023-07-13T14:59:36;5.47;;;1.60;;
53263;SDS011;39153;52.680;6.172;2023-07-13T15:02:01;4.60;;;1.48;;
53263;SDS011;39153;52.680;6.172;2023-07-13T15:04:27;5.15;;;1.70;;
53263;SDS011;39153;52.680;6.172;2023-07-13T15:06:55;4.70;;;1.50;;
53263;SDS011;39153;52.680;6.172;2023-07-13T15:09:22;5.10;;;1.40;;
53263;SDS011;39153;52.680;6.172;2023-07-13T15:11:51;7.30;;;1.77;;
53263;SDS011;39153;52.680;6.172;2023-07-13T15:14:17;5.88;;;1.70;;
53263;SDS011;39153;52.680;6.172;2023-07-13T15:16:43;5.65;;;1.38;;
53263;SDS011;39153;52.680;6.172;2023-07-13T15:19:11;5.68;;;1.50;;
53263;SDS011;39153;52.680;6.172;2023-07-13T15:21:37;3.67;;;1.25;;
53263;SDS011;39153;52.680;6.172;2023-07-13T15:24:02;6.13;;;1.50;;
53263;SDS011;39153;52.680;6.172;2023-07-13T15:26:29;4.25;;;1.40;;
53263;SDS011;39153;52.680;6.172;2023-07-13T15:28:55;5.20;;;1.35;;
53263;SDS011;39153;52.680;6.172;2023-07-13T15:31:21;4.82;;;1.50;;